createdAt,value
2023-05-11T00:02:07.492Z,42.73
2023-05-11T00:04:47.416Z,42.74
2023-05-11T00:07:25.870Z,43.00
2023-05-11T00:10:12.604Z,43.12
2023-05-11T00:12:55.803Z,43.29
2023-05-11T00:15:31.557Z,43.38
2023-05-11T00:18:16.948Z,43.41
2023-05-11T00:20:56.923Z,43.61
2023-05-11T00:23:39.733Z,43.62
2023-05-11T00:26:29.585Z,43.82
2023-05-11T00:29:13.263Z,43.95
2023-05-11T00:31:51.808Z,44.13
2023-05-11T00:37:36.265Z,44.28
2023-05-11T00:40:21.476Z,44.25
2023-05-11T00:43:05.676Z,44.41
2023-05-11T00:45:49.079Z,44.48
2023-05-11T00:48:30.783Z,44.65
2023-05-11T00:51:14.374Z,44.68
2023-05-11T00:53:55.890Z,44.89
2023-05-11T00:56:40.549Z,44.91
2023-05-11T00:59:30.809Z,44.93
2023-05-11T01:02:14.786Z,44.97
2023-05-11T01:04:48.630Z,45.14
2023-05-11T01:08:03.851Z,45.31
2023-05-11T01:10:59.820Z,45.46
2023-05-11T01:14:58.860Z,45.54
2023-05-11T01:18:07.407Z,45.67
2023-05-11T01:20:50.519Z,45.81
2023-05-11T01:23:45.131Z,45.88
2023-05-11T01:26:39.074Z,46.08
2023-05-11T01:30:04.707Z,46.14
2023-05-11T01:32:36.939Z,46.14
2023-05-11T01:35:20.331Z,46.21
2023-05-11T01:37:57.427Z,46.23
2023-05-11T01:40:32.818Z,46.17
2023-05-11T01:43:19.055Z,46.27
2023-05-11T01:45:51.782Z,46.43
2023-05-11T01:48:26.452Z,46.40
2023-05-11T01:51:06.725Z,46.45
2023-05-11T01:53:48.174Z,46.49
2023-05-11T01:56:38.675Z,46.46
2023-05-11T01:59:19.248Z,46.62
2023-05-11T02:01:59.786Z,46.73
2023-05-11T02:04:40.279Z,46.75
2023-05-11T02:07:20.235Z,46.66
2023-05-11T02:09:54.312Z,46.81
2023-05-11T02:12:31.581Z,46.92
2023-05-11T02:15:03.597Z,47.03
2023-05-11T02:17:34.571Z,46.96
2023-05-11T02:20:06.416Z,47.10
2023-05-11T02:22:37.260Z,47.14
2023-05-11T02:25:10.165Z,47.23
2023-05-11T02:27:39.780Z,47.22
2023-05-11T02:30:10.504Z,47.44
2023-05-11T02:32:49.772Z,47.45
2023-05-11T02:35:30.032Z,47.70
2023-05-11T02:38:04.018Z,47.50
2023-05-11T02:40:45.920Z,47.65
2023-05-11T02:43:23.407Z,47.70
2023-05-11T02:46:03.384Z,47.82
2023-05-11T02:48:47.368Z,48.00
2023-05-11T02:51:22.994Z,47.91
2023-05-11T02:53:57.557Z,48.13
2023-05-11T02:56:38.987Z,48.18
2023-05-11T02:59:13.013Z,48.24
2023-05-11T03:01:54.379Z,48.34
2023-05-11T03:04:36.686Z,48.56
2023-05-11T03:07:11.588Z,48.63
2023-05-11T03:09:50.129Z,48.70
2023-05-11T03:12:34.974Z,48.89
2023-05-11T03:15:27.371Z,49.10
2023-05-11T03:18:10.356Z,49.21
2023-05-11T03:20:59.118Z,49.26
2023-05-11T03:23:44.838Z,49.67
2023-05-11T03:26:32.522Z,49.85
2023-05-11T03:29:11.233Z,50.00
2023-05-11T03:31:50.999Z,50.04
2023-05-11T03:34:32.593Z,50.07
2023-05-11T03:37:12.085Z,50.17
2023-05-11T03:40:03.028Z,50.29
2023-05-11T03:42:48.587Z,50.28
2023-05-11T03:45:23.517Z,50.26
2023-05-11T03:48:00.672Z,50.25
2023-05-11T03:50:48.387Z,50.27
2023-05-11T03:53:27.301Z,50.43
2023-05-11T03:56:09.190Z,50.40
2023-05-11T03:58:48.158Z,50.60
2023-05-11T04:01:33.176Z,50.50
2023-05-11T04:04:43.643Z,50.57
2023-05-11T04:07:25.213Z,50.59
2023-05-11T04:10:09.565Z,50.68
2023-05-11T04:12:46.614Z,50.63
2023-05-11T04:15:21.531Z,50.78
2023-05-11T04:17:58.634Z,50.89
2023-05-11T04:20:33.753Z,51.17
2023-05-11T04:23:11.779Z,50.86
2023-05-11T04:29:06.028Z,50.56
2023-05-11T04:32:01.837Z,50.11
2023-05-11T04:34:40.749Z,49.89
2023-05-11T04:37:19.199Z,49.76
2023-05-11T04:40:13.569Z,49.83
2023-05-11T04:43:07.568Z,50.62
2023-05-11T04:46:12.615Z,50.58
2023-05-11T04:48:49.764Z,50.01
2023-05-11T04:51:27.355Z,49.16
2023-05-11T04:53:58.161Z,47.82
2023-05-11T04:56:30.303Z,46.64
2023-05-11T04:59:15.460Z,45.72
2023-05-11T05:01:55.376Z,44.62
2023-05-11T05:04:49.967Z,44.08
2023-05-11T05:07:31.159Z,43.57
2023-05-11T05:10:12.810Z,43.29
2023-05-11T05:12:48.069Z,43.63
2023-05-11T05:15:31.379Z,43.33
2023-05-11T05:18:24.885Z,42.59
2023-05-11T05:21:14.989Z,41.75
2023-05-11T05:24:17.297Z,41.20
2023-05-11T05:30:03.362Z,39.79
2023-05-11T05:33:07.015Z,38.75
2023-05-11T05:35:54.069Z,38.77
2023-05-11T05:38:34.131Z,38.38
2023-05-11T05:41:05.076Z,38.51
2023-05-11T05:43:39.074Z,38.77
2023-05-11T05:46:09.756Z,38.26
2023-05-11T05:48:40.339Z,37.12
2023-05-11T05:51:11.126Z,37.24
2023-05-11T05:53:42.626Z,37.17
2023-05-11T05:56:13.461Z,36.80
2023-05-11T05:58:46.866Z,36.09
2023-05-11T06:01:18.046Z,35.77
2023-05-11T06:03:49.549Z,35.32
2023-05-11T06:06:20.177Z,35.42
2023-05-11T06:08:51.974Z,35.37
2023-05-11T06:11:23.047Z,34.76
2023-05-11T06:13:55.604Z,34.03
2023-05-11T06:16:27.445Z,33.79
2023-05-11T06:18:57.797Z,33.28
2023-05-11T06:21:29.700Z,34.01
2023-05-11T06:24:00.442Z,34.41
2023-05-11T06:26:50.617Z,33.48
2023-05-11T06:29:22.777Z,33.18
2023-05-11T06:32:08.344Z,32.73
2023-05-11T06:34:50.468Z,32.77
2023-05-11T06:37:21.608Z,32.29
2023-05-11T06:39:53.978Z,32.44
2023-05-11T06:42:25.022Z,33.29
2023-05-11T06:45:01.408Z,33.24
2023-05-11T06:47:32.357Z,34.04
2023-05-11T06:50:02.756Z,33.81
2023-05-11T06:52:32.960Z,33.80
2023-05-11T06:55:05.067Z,33.68
2023-05-11T06:57:35.161Z,34.12
2023-05-11T07:00:06.477Z,33.93
2023-05-11T07:02:36.848Z,33.69
2023-05-11T07:05:06.953Z,33.44
2023-05-11T07:07:37.008Z,33.48
2023-05-11T07:10:10.529Z,33.93
2023-05-11T07:12:40.552Z,34.34
2023-05-11T07:15:11.495Z,34.12
2023-05-11T07:17:48.505Z,33.47
2023-05-11T07:20:22.087Z,33.49
2023-05-11T07:22:52.685Z,34.10
2023-05-11T07:25:23.026Z,34.14
2023-05-11T07:27:53.428Z,33.18
2023-05-11T07:30:26.524Z,32.95
2023-05-11T07:32:56.580Z,32.96
2023-05-11T07:35:26.861Z,32.93
2023-05-11T07:37:59.149Z,33.06
2023-05-11T07:40:29.064Z,32.62
2023-05-11T07:43:00.810Z,31.91
2023-05-11T07:45:30.498Z,31.79
2023-05-11T07:48:00.527Z,32.20
2023-05-11T07:50:33.026Z,31.54
2023-05-11T07:53:04.063Z,31.35
2023-05-11T07:55:33.761Z,31.62
2023-05-11T07:58:06.350Z,31.93
2023-05-11T08:00:36.797Z,31.82
2023-05-11T08:03:11.394Z,31.61
2023-05-11T08:05:41.883Z,31.92
2023-05-11T08:08:14.619Z,31.79
2023-05-11T08:10:44.968Z,31.38
2023-05-11T08:13:15.267Z,31.19
2023-05-11T08:15:46.891Z,31.32
2023-05-11T08:18:25.523Z,31.48
2023-05-11T08:20:58.667Z,31.09
2023-05-11T08:23:43.446Z,31.02
2023-05-11T08:26:44.130Z,31.05
2023-05-11T08:29:45.397Z,29.61
2023-05-11T08:33:17.626Z,29.43
2023-05-11T08:35:33.596Z,29.83
2023-05-11T08:38:20.204Z,30.15
2023-05-11T08:44:00.148Z,30.63
2023-05-11T08:46:42.350Z,29.99
2023-05-11T08:49:14.655Z,29.58
2023-05-11T08:51:56.622Z,29.65
2023-05-11T08:54:36.847Z,29.96
2023-05-11T08:57:30.586Z,29.65
2023-05-11T09:00:14.619Z,29.45
2023-05-11T09:02:54.733Z,28.97
2023-05-11T09:05:38.543Z,27.96
2023-05-11T09:08:17.625Z,28.12
2023-05-11T09:14:54.843Z,28.14
2023-05-11T09:17:30.635Z,27.52
2023-05-11T09:20:16.542Z,27.41
2023-05-11T09:22:59.288Z,27.63
2023-05-11T09:25:48.010Z,27.71
2023-05-11T09:28:35.996Z,27.46
2023-05-11T09:31:59.900Z,26.85
2023-05-11T09:35:15.034Z,27.20
2023-05-11T09:38:19.129Z,26.95
2023-05-11T09:41:13.379Z,26.98
2023-05-11T09:44:44.992Z,26.97
2023-05-11T09:47:30.253Z,27.07
2023-05-11T09:50:26.440Z,27.24
2023-05-11T09:53:21.442Z,27.67
2023-05-11T09:56:10.835Z,27.47
2023-05-11T09:58:57.838Z,27.46
2023-05-11T10:01:45.231Z,27.31
2023-05-11T10:04:33.504Z,27.11
2023-05-11T10:07:30.553Z,26.99
2023-05-11T10:10:27.235Z,26.96
2023-05-11T10:13:27.727Z,26.85
2023-05-11T10:16:21.420Z,26.52
2023-05-11T10:19:14.506Z,26.80
2023-05-11T10:21:59.230Z,26.58
2023-05-11T10:24:44.261Z,26.94
2023-05-11T10:30:49.723Z,27.55
2023-05-11T10:33:56.301Z,28.18
2023-05-11T10:36:45.249Z,28.17
2023-05-11T10:39:51.576Z,28.12
2023-05-11T10:42:56.899Z,28.27
2023-05-11T10:46:24.848Z,28.37
2023-05-11T10:49:39.061Z,28.19
2023-05-11T10:52:58.925Z,28.52
2023-05-11T10:55:58.784Z,28.22
2023-05-11T11:14:35.512Z,26.99
2023-05-11T11:17:59.059Z,27.21
2023-05-11T11:21:28.299Z,27.90
2023-05-11T11:24:49.080Z,28.45
2023-05-11T11:28:00.262Z,28.82
2023-05-11T11:31:51.486Z,28.66
2023-05-11T11:39:11.280Z,28.36
2023-05-11T11:42:19.161Z,28.92
2023-05-11T11:53:01.918Z,28.56
2023-05-11T11:55:48.776Z,28.72
2023-05-11T11:58:40.614Z,28.54
2023-05-11T12:01:28.749Z,28.59
2023-05-11T12:04:51.477Z,28.30
2023-05-11T12:07:36.306Z,28.03
2023-05-11T12:10:06.408Z,28.02
2023-05-11T12:12:59.890Z,28.09
2023-05-11T12:15:44.044Z,27.86
2023-05-11T12:18:24.159Z,27.64
2023-05-11T12:20:56.919Z,27.57
2023-05-11T12:23:30.660Z,27.72
2023-05-11T12:26:07.549Z,27.87
2023-05-11T12:28:37.732Z,27.99
2023-05-11T12:31:08.733Z,27.91
2023-05-11T12:33:50.439Z,27.93
2023-05-11T12:36:21.070Z,28.00
2023-05-11T12:38:51.341Z,27.95
2023-05-11T12:41:23.469Z,27.76
2023-05-11T12:43:56.843Z,27.67
2023-05-11T12:46:30.371Z,27.64
2023-05-11T12:49:00.340Z,27.30
2023-05-11T12:51:58.235Z,27.18
2023-05-11T12:54:41.841Z,27.32
2023-05-11T12:57:31.829Z,27.50
2023-05-11T13:00:17.718Z,27.20
2023-05-11T13:02:55.672Z,27.17
2023-05-11T13:05:28.183Z,27.16
2023-05-11T13:08:04.560Z,26.89
2023-05-11T13:10:34.757Z,26.72
2023-05-11T13:13:04.454Z,26.47
2023-05-11T13:15:34.894Z,26.43
2023-05-11T13:18:05.049Z,26.59
2023-05-11T13:20:35.556Z,26.27
2023-05-11T13:23:14.213Z,26.09
2023-05-11T13:25:48.629Z,26.39
2023-05-11T13:28:22.296Z,26.39
2023-05-11T13:31:04.505Z,25.91
2023-05-11T13:33:34.880Z,25.64
2023-05-11T13:36:05.415Z,25.53
2023-05-11T13:38:35.421Z,25.59
2023-05-11T13:41:07.375Z,25.65
2023-05-11T13:43:37.737Z,25.89
2023-05-11T13:46:08.222Z,25.83
2023-05-11T13:48:38.557Z,25.97
2023-05-11T13:51:08.784Z,26.03
2023-05-11T13:53:41.952Z,25.99
2023-05-11T13:56:12.307Z,25.92
2023-05-11T13:58:42.495Z,25.97
2023-05-11T14:01:13.157Z,26.06
2023-05-11T14:03:43.670Z,25.98
2023-05-11T14:06:14.489Z,26.06
2023-05-11T14:08:45.738Z,25.87
2023-05-11T14:11:16.364Z,25.83
2023-05-11T14:13:49.669Z,25.83
2023-05-11T14:16:21.218Z,26.07
2023-05-11T14:18:51.448Z,26.22
2023-05-11T14:21:21.709Z,26.15
2023-05-11T14:24:10.054Z,26.17
2023-05-11T14:26:42.218Z,26.18
2023-05-11T14:29:12.604Z,26.12
2023-05-11T14:31:45.984Z,26.04
2023-05-11T14:34:16.563Z,26.15
2023-05-11T14:36:47.204Z,26.13
2023-05-11T14:39:23.813Z,26.17
2023-05-11T14:42:31.344Z,26.18
2023-05-11T14:45:11.868Z,26.16
2023-05-11T14:48:11.706Z,25.97
2023-05-11T14:51:02.962Z,26.01
2023-05-11T14:53:45.293Z,26.05
2023-05-11T14:56:23.812Z,26.04
2023-05-11T14:58:59.931Z,25.80
2023-05-11T15:01:36.920Z,25.71
2023-05-11T15:04:22.358Z,25.89
2023-05-11T15:07:04.877Z,25.92
2023-05-11T15:09:39.016Z,25.55
2023-05-11T15:12:13.540Z,25.36
2023-05-11T15:14:55.040Z,25.24
2023-05-11T15:17:38.190Z,25.43
2023-05-11T15:20:13.511Z,25.36
2023-05-11T15:22:57.398Z,25.39
2023-05-11T15:25:27.829Z,25.54
2023-05-11T15:27:58.137Z,25.75
2023-05-11T15:30:37.108Z,26.01
2023-05-11T15:33:10.062Z,25.87
2023-05-11T15:35:53.997Z,25.85
2023-05-11T15:38:25.563Z,26.11
2023-05-11T15:40:58.946Z,26.39
2023-05-11T15:43:29.663Z,26.37
2023-05-11T15:46:07.837Z,26.61
2023-05-11T15:49:04.567Z,26.80
2023-05-11T15:51:38.849Z,26.89
2023-05-11T15:54:11.909Z,27.06
2023-05-11T15:56:46.910Z,26.80
2023-05-11T15:59:21.028Z,26.80
2023-05-11T16:02:03.358Z,26.95
2023-05-11T16:04:36.372Z,27.07
2023-05-11T16:07:15.126Z,27.26
2023-05-11T16:09:50.857Z,27.46
2023-05-11T16:12:42.379Z,27.30
2023-05-11T16:15:26.096Z,27.32
2023-05-11T16:18:05.313Z,27.30
2023-05-11T16:20:57.049Z,27.30
2023-05-11T16:23:30.764Z,27.48
2023-05-11T16:26:05.772Z,27.48
2023-05-11T16:28:35.966Z,27.37
2023-05-11T16:31:06.263Z,27.28
2023-05-11T16:33:38.369Z,27.19
2023-05-11T16:36:11.772Z,27.15
2023-05-11T16:38:44.973Z,27.06
2023-05-11T16:41:15.478Z,27.05
2023-05-11T16:43:46.597Z,27.10
2023-05-11T16:46:20.263Z,27.11
2023-05-11T16:48:58.732Z,27.32
2023-05-11T16:51:31.494Z,27.50
2023-05-11T16:54:06.773Z,27.60
2023-05-11T16:56:37.684Z,27.61
2023-05-11T16:59:11.691Z,27.75
2023-05-11T17:01:42.513Z,27.93
2023-05-11T17:04:13.526Z,28.09
2023-05-11T17:06:43.892Z,28.26
2023-05-11T17:09:14.437Z,28.40
2023-05-11T17:11:44.864Z,28.55
2023-05-11T17:14:15.503Z,28.68
2023-05-11T17:16:45.637Z,28.80
2023-05-11T17:19:16.515Z,28.84
2023-05-11T17:21:50.693Z,28.95
2023-05-11T17:24:23.791Z,29.10
2023-05-11T17:26:53.876Z,29.26
2023-05-11T17:29:24.606Z,29.38
2023-05-11T17:31:54.977Z,29.46
2023-05-11T17:34:44.154Z,29.67
2023-05-11T17:37:30.752Z,29.79
2023-05-11T17:40:07.890Z,29.91
2023-05-11T17:42:40.241Z,30.10
2023-05-11T17:45:14.566Z,30.16
2023-05-11T17:47:50.731Z,30.36
2023-05-11T17:50:32.899Z,30.46
2023-05-11T17:53:45.406Z,30.68
2023-05-11T18:08:03.595Z,31.54
2023-05-11T18:11:03.936Z,31.71
2023-05-11T18:22:28.581Z,32.90
2023-05-11T18:28:35.417Z,33.17
2023-05-11T18:31:09.487Z,33.24
2023-05-11T18:33:55.042Z,33.24
2023-05-11T18:37:10.917Z,33.52
2023-05-11T18:40:02.377Z,33.95
2023-05-11T18:42:41.073Z,34.11
2023-05-11T18:45:30.747Z,34.24
2023-05-11T18:48:37.291Z,34.37
2023-05-11T18:52:02.429Z,34.62
2023-05-11T18:54:48.902Z,35.06
2023-05-11T19:00:26.762Z,35.59
2023-05-11T19:03:43.709Z,35.81
2023-05-11T19:06:55.627Z,36.24
2023-05-11T19:10:01.006Z,36.36
2023-05-11T19:13:13.557Z,36.67
2023-05-11T19:19:10.400Z,36.98
2023-05-11T19:22:02.198Z,37.19
2023-05-11T19:24:58.386Z,37.30
2023-05-11T19:28:11.997Z,37.44
2023-05-11T19:35:20.362Z,38.03
2023-05-11T19:38:27.922Z,38.16
2023-05-11T19:41:34.464Z,38.47
2023-05-11T19:47:45.854Z,38.76
2023-05-11T19:50:35.009Z,38.81
2023-05-11T19:53:26.849Z,39.08
2023-05-11T19:56:40.170Z,39.08
2023-05-11T19:59:48.494Z,39.35
2023-05-11T20:03:01.319Z,39.38
2023-05-11T20:05:58.771Z,39.58
2023-05-11T20:09:03.071Z,39.65
2023-05-11T20:11:50.073Z,39.75
2023-05-11T20:14:59.104Z,39.88
2023-05-11T20:17:37.923Z,39.91
2023-05-11T20:20:09.749Z,40.00
2023-05-11T20:22:44.036Z,40.02
2023-05-11T20:28:34.933Z,40.46
2023-05-11T20:31:32.974Z,40.57
2023-05-11T20:34:21.053Z,40.66
2023-05-11T20:37:28.289Z,40.68
2023-05-11T20:40:21.685Z,40.89
2023-05-11T20:43:40.966Z,41.11
2023-05-11T20:46:36.341Z,41.12
2023-05-11T20:49:54.419Z,41.20
2023-05-11T20:52:40.958Z,41.47
2023-05-11T20:55:36.123Z,41.52
2023-05-11T20:58:24.904Z,41.67
2023-05-11T21:02:45.151Z,41.84
2023-05-11T21:05:07.218Z,41.98
2023-05-11T21:08:14.710Z,42.04
2023-05-11T21:11:45.066Z,42.17
2023-05-11T21:14:35.696Z,42.28
2023-05-11T21:17:50.137Z,42.35
2023-05-11T21:20:54.610Z,42.50
2023-05-11T21:24:12.314Z,42.61
2023-05-11T21:27:10.138Z,42.58
2023-05-11T21:33:54.491Z,42.91
2023-05-11T21:36:54.591Z,43.06
2023-05-11T21:39:46.508Z,43.09
2023-05-11T21:42:48.343Z,43.14
2023-05-11T21:45:55.545Z,43.13
2023-05-11T21:48:56.590Z,43.30
2023-05-11T21:52:13.570Z,43.05
2023-05-11T21:55:19.282Z,43.18
2023-05-11T22:02:55.714Z,43.36
2023-05-11T22:05:17.186Z,43.60
2023-05-11T22:08:18.628Z,43.74
2023-05-11T22:11:22.325Z,43.95
2023-05-11T22:14:04.596Z,44.06
2023-05-11T22:16:45.790Z,44.08
2023-05-11T22:20:44.636Z,44.21
2023-05-11T22:22:45.649Z,44.40
2023-05-11T22:25:41.203Z,44.39
2023-05-11T22:29:03.711Z,44.47
2023-05-11T22:31:49.269Z,44.51
2023-05-11T22:34:56.600Z,44.80
2023-05-11T22:37:41.798Z,44.85
2023-05-11T22:40:59.472Z,45.06
2023-05-11T22:43:46.025Z,45.07
2023-05-11T22:46:45.997Z,45.22
2023-05-11T22:49:42.750Z,45.26
2023-05-11T22:52:31.028Z,45.45
2023-05-11T22:55:57.787Z,45.32
2023-05-11T22:59:10.985Z,45.41
2023-05-11T23:02:16.069Z,45.60
2023-05-11T23:05:08.978Z,45.42
2023-05-11T23:08:10.729Z,45.62
2023-05-11T23:11:30.942Z,45.80
2023-05-11T23:14:26.962Z,45.88
2023-05-11T23:20:26.163Z,45.86
2023-05-11T23:23:09.714Z,45.97
2023-05-11T23:25:47.707Z,46.03
2023-05-11T23:28:43.785Z,45.87
2023-05-11T23:31:36.286Z,45.92
2023-05-11T23:34:17.402Z,45.94
2023-05-11T23:37:39.241Z,45.79
2023-05-11T23:40:53.344Z,45.81
2023-05-11T23:43:53.726Z,45.84
2023-05-11T23:46:52.743Z,45.68
2023-05-11T23:49:37.480Z,45.77
2023-05-11T23:52:32.724Z,45.86
2023-05-11T23:55:08.481Z,45.79
2023-05-11T23:58:03.907Z,45.83
